Time;durP1;ratioP1;P1;durP2;ratioP2;P2;SDS_P1;SDS_P2;PMS_P1;PMS_P2;Temp;Humidity;BMP_temperature;BMP_pressure;BME280_temperature;BME280_humidity;BME280_pressure;Samples;Min_cycle;Max_cycle;Signal;HPM_P1;HPM_P2
2022/06/26 00:02:07;;;;;;;8.85;2.45;;;25.00;72.10;;;;;;5073747;28;20483;-67
2022/06/26 00:04:33;;;;;;;11.55;3.03;;;25.00;72.00;;;;;;5073835;28;20037;-67
2022/06/26 00:07:00;;;;;;;13.07;2.80;;;24.90;71.80;;;;;;5074119;28;20418;-65
2022/06/26 00:09:26;;;;;;;7.93;2.22;;;25.00;72.20;;;;;;5073494;28;20036;-64
2022/06/26 00:11:52;;;;;;;8.23;2.58;;;24.90;72.00;;;;;;5073604;28;20124;-63
2022/06/26 00:14:18;;;;;;;8.93;2.58;;;24.90;72.00;;;;;;5073422;28;20119;-61
2022/06/26 00:16:43;;;;;;;9.68;3.40;;;24.80;72.00;;;;;;5073379;28;20087;-68
2022/06/26 00:19:09;;;;;;;9.68;2.30;;;24.80;72.70;;;;;;5073372;28;20033;-64
2022/06/26 00:21:35;;;;;;;14.13;3.17;;;24.80;73.10;;;;;;5073471;28;20035;-64
2022/06/26 00:24:00;;;;;;;8.75;3.22;;;24.80;73.50;;;;;;5073640;28;20032;-64
2022/06/26 00:26:26;;;;;;;12.43;2.50;;;24.80;73.60;;;;;;5073167;28;20470;-67
2022/06/26 00:28:52;;;;;;;12.65;3.15;;;24.70;73.50;;;;;;5073295;28;20048;-64
2022/06/26 00:31:18;;;;;;;18.88;2.75;;;24.70;73.60;;;;;;5073334;28;20029;-68
2022/06/26 00:33:44;;;;;;;8.00;2.80;;;24.70;73.40;;;;;;5073099;28;20055;-64
2022/06/26 00:36:10;;;;;;;9.43;3.05;;;24.70;73.20;;;;;;5073352;28;20117;-66
2022/06/26 00:38:35;;;;;;;13.00;2.85;;;24.70;73.40;;;;;;5073093;28;20035;-64
2022/06/26 00:41:01;;;;;;;10.65;2.60;;;24.70;73.70;;;;;;5073083;28;20074;-67
2022/06/26 00:43:28;;;;;;;13.18;3.38;;;24.60;74.10;;;;;;5072886;28;20037;-64
2022/06/26 00:45:54;;;;;;;5.65;2.40;;;24.60;73.50;;;;;;5071910;28;20394;-69
2022/06/26 00:48:19;;;;;;;12.13;2.72;;;24.60;73.40;;;;;;5072816;28;20098;-63
2022/06/26 00:50:46;;;;;;;8.02;2.40;;;24.60;73.10;;;;;;5072955;28;20020;-68
2022/06/26 00:53:12;;;;;;;10.88;2.60;;;24.50;72.80;;;;;;5073117;28;20032;-67
2022/06/26 00:55:38;;;;;;;7.90;2.50;;;24.50;72.90;;;;;;5072939;28;20021;-63
2022/06/26 00:58:04;;;;;;;7.97;2.90;;;24.50;73.00;;;;;;5071469;28;20058;-64
2022/06/26 01:00:30;;;;;;;9.77;2.78;;;24.50;73.10;;;;;;5069940;28;20562;-64
2022/06/26 01:02:55;;;;;;;7.28;2.40;;;24.40;73.10;;;;;;5069973;28;20120;-64
2022/06/26 01:05:21;;;;;;;5.10;2.60;;;24.40;73.30;;;;;;5071594;28;20082;-67
2022/06/26 01:07:47;;;;;;;6.88;2.50;;;24.40;73.90;;;;;;5072604;28;20041;-64
2022/06/26 01:10:13;;;;;;;7.28;2.50;;;24.30;74.10;;;;;;5072875;28;20564;-63
2022/06/26 01:12:39;;;;;;;7.13;2.50;;;24.30;74.40;;;;;;5072423;28;20119;-68
2022/06/26 01:15:08;;;;;;;9.30;2.80;;;24.30;74.40;;;;;;5072426;28;20032;-64
2022/06/26 01:17:34;;;;;;;10.00;3.55;;;24.30;74.30;;;;;;5072570;28;20134;-69
2022/06/26 01:20:02;;;;;;;13.48;3.28;;;24.20;74.50;;;;;;5072268;28;20028;-63
2022/06/26 01:22:29;;;;;;;9.75;2.92;;;24.20;74.20;;;;;;5072404;28;20025;-66
2022/06/26 01:24:55;;;;;;;11.25;2.60;;;24.20;74.10;;;;;;5072171;28;20025;-64
2022/06/26 01:27:20;;;;;;;7.38;2.50;;;24.20;73.50;;;;;;5072766;28;20035;-65
2022/06/26 01:29:46;;;;;;;10.07;2.67;;;24.20;73.50;;;;;;5072175;28;20044;-64
2022/06/26 01:32:12;;;;;;;11.10;2.80;;;24.20;73.60;;;;;;5072186;28;20505;-63
2022/06/26 01:34:38;;;;;;;8.40;2.55;;;24.20;73.70;;;;;;5072360;28;20041;-66
2022/06/26 01:37:04;;;;;;;9.10;2.22;;;24.20;73.70;;;;;;5072092;28;20032;-64
2022/06/26 01:39:30;;;;;;;9.27;2.28;;;24.20;73.30;;;;;;5072221;28;20115;-68
2022/06/26 01:41:55;;;;;;;8.25;2.15;;;24.20;72.70;;;;;;5072722;28;20040;-64
2022/06/26 01:44:21;;;;;;;11.30;2.50;;;24.20;72.10;;;;;;5072436;28;20111;-67
2022/06/26 01:46:47;;;;;;;11.40;2.47;;;24.20;71.70;;;;;;5072181;28;20112;-67
2022/06/26 01:49:13;;;;;;;13.15;3.10;;;24.20;71.70;;;;;;5071956;28;20045;-67
2022/06/26 01:51:39;;;;;;;6.30;2.10;;;24.20;71.20;;;;;;5072518;28;20044;-66
2022/06/26 01:54:04;;;;;;;6.55;2.30;;;24.10;70.90;;;;;;5072188;28;20037;-61
2022/06/26 01:56:30;;;;;;;8.25;2.10;;;24.10;71.00;;;;;;5072329;28;20486;-67
2022/06/26 01:58:55;;;;;;;7.03;2.13;;;24.10;71.10;;;;;;5076197;28;20044;-68
2022/06/26 02:01:21;;;;;;;8.90;2.35;;;24.10;71.20;;;;;;5076218;28;20471;-66
2022/06/26 02:03:47;;;;;;;8.10;2.20;;;24.10;71.00;;;;;;5076292;28;20170;-64
2022/06/26 02:06:13;;;;;;;6.78;2.10;;;24.00;71.10;;;;;;5075772;28;20029;-67
2022/06/26 02:08:39;;;;;;;9.85;2.28;;;24.00;71.10;;;;;;5075793;28;20131;-65
2022/06/26 02:13:49;;;;;;;15.82;2.40;;;24.00;71.40;;;;;;5076173;28;20094;-64
2022/06/26 02:16:28;;;;;;;7.47;2.45;;;24.00;71.40;;;;;;5075920;28;20025;-64
2022/06/26 02:18:56;;;;;;;7.45;2.05;;;24.00;71.40;;;;;;5075892;28;20033;-68
2022/06/26 02:21:28;;;;;;;8.80;2.67;;;24.00;71.20;;;;;;5075556;28;20036;-68
2022/06/26 02:23:55;;;;;;;10.52;2.28;;;24.00;71.00;;;;;;5075781;28;20387;-69
2022/06/26 02:26:22;;;;;;;10.82;2.78;;;24.00;70.90;;;;;;5075912;28;20036;-67
2022/06/26 02:28:48;;;;;;;6.28;2.58;;;23.90;70.60;;;;;;5075449;28;20051;-62
2022/06/26 02:31:14;;;;;;;7.35;2.17;;;23.90;70.70;;;;;;5075795;28;20104;-64
2022/06/26 02:33:40;;;;;;;12.15;2.30;;;23.90;70.70;;;;;;5074998;28;20045;-64
2022/06/26 02:36:07;;;;;;;11.68;2.55;;;23.90;70.70;;;;;;5075641;28;20440;-64
2022/06/26 02:38:34;;;;;;;7.72;2.30;;;23.90;70.50;;;;;;5075488;28;20040;-67
2022/06/26 02:41:00;;;;;;;17.35;2.30;;;23.90;70.40;;;;;;5075660;28;20424;-64
2022/06/26 02:43:26;;;;;;;14.98;2.30;;;23.90;70.40;;;;;;5075147;28;20088;-68
2022/06/26 02:45:53;;;;;;;9.73;2.80;;;23.80;70.10;;;;;;5075491;28;20029;-68
2022/06/26 02:48:20;;;;;;;11.07;2.70;;;23.80;70.20;;;;;;5075193;28;20123;-66
2022/06/26 02:50:46;;;;;;;13.30;3.17;;;23.80;70.10;;;;;;5075101;28;20107;-64
2022/06/26 02:53:13;;;;;;;9.70;2.47;;;23.80;70.10;;;;;;5075064;28;20111;-67
2022/06/26 02:55:39;;;;;;;6.93;2.53;;;23.70;70.10;;;;;;5074984;28;20051;-64
2022/06/26 02:58:05;;;;;;;7.35;2.15;;;23.70;70.20;;;;;;5075117;28;20533;-68
2022/06/26 03:00:31;;;;;;;10.38;2.22;;;23.70;70.30;;;;;;5075266;28;20029;-68
2022/06/26 03:02:56;;;;;;;8.63;2.40;;;23.80;70.30;;;;;;5075038;28;20067;-68
2022/06/26 03:05:22;;;;;;;9.30;2.47;;;23.70;70.20;;;;;;5075305;28;20025;-64
2022/06/26 03:07:48;;;;;;;12.13;2.67;;;23.70;70.30;;;;;;5075008;28;20045;-64
2022/06/26 03:10:14;;;;;;;9.05;2.60;;;23.70;70.50;;;;;;5073899;28;20028;-64
2022/06/26 03:12:47;;;;;;;11.73;2.53;;;23.70;70.60;;;;;;5074652;28;20086;-64
2022/06/26 03:15:13;;;;;;;6.78;2.33;;;23.80;70.70;;;;;;5074677;28;20479;-63
2022/06/26 03:17:39;;;;;;;7.93;2.38;;;23.70;70.70;;;;;;5074772;28;20505;-64
2022/06/26 03:20:09;;;;;;;7.10;2.80;;;23.70;70.70;;;;;;5074914;28;20039;-67
2022/06/26 03:22:35;;;;;;;7.78;2.45;;;23.70;70.90;;;;;;5074663;28;20036;-68
2022/06/26 03:25:00;;;;;;;7.40;2.45;;;23.70;71.20;;;;;;5074807;28;20084;-63
2022/06/26 03:27:26;;;;;;;12.68;3.28;;;23.60;71.40;;;;;;5074683;28;20161;-67
2022/06/26 03:29:51;;;;;;;8.30;2.55;;;23.60;71.40;;;;;;5074329;28;20048;-64
2022/06/26 03:32:17;;;;;;;9.55;2.63;;;23.60;71.40;;;;;;5074489;28;20560;-68
2022/06/26 03:34:43;;;;;;;5.93;2.38;;;23.60;71.40;;;;;;5074248;28;20537;-66
2022/06/26 03:37:08;;;;;;;9.63;2.53;;;23.60;71.60;;;;;;5074467;28;20036;-64
2022/06/26 03:39:34;;;;;;;6.15;2.08;;;23.60;71.60;;;;;;5074453;28;20078;-66
2022/06/26 03:42:02;;;;;;;9.90;2.78;;;23.60;71.80;;;;;;5074296;28;20040;-63
2022/06/26 03:44:30;;;;;;;9.52;2.42;;;23.60;71.80;;;;;;5074347;28;20075;-64
2022/06/26 03:46:57;;;;;;;7.50;2.67;;;23.60;71.60;;;;;;5074176;28;20036;-68
2022/06/26 03:49:24;;;;;;;11.05;2.35;;;23.60;71.70;;;;;;5074151;28;20036;-68
2022/06/26 03:51:50;;;;;;;9.52;2.60;;;23.60;72.00;;;;;;5074134;28;20033;-63
2022/06/26 03:54:16;;;;;;;8.30;2.25;;;23.60;72.10;;;;;;5074173;28;20036;-63
2022/06/26 03:56:42;;;;;;;6.22;2.20;;;23.60;72.00;;;;;;5073936;28;20031;-67
2022/06/26 03:59:08;;;;;;;10.07;2.17;;;23.60;71.70;;;;;;5073783;28;20592;-64
2022/06/26 04:01:34;;;;;;;6.22;2.10;;;23.60;71.70;;;;;;5073650;28;20029;-64
2022/06/26 04:04:00;;;;;;;11.32;2.38;;;23.60;71.70;;;;;;5073272;28;20035;-67
2022/06/26 04:06:25;;;;;;;10.77;2.45;;;23.60;71.80;;;;;;5073914;28;20110;-64
2022/06/26 04:08:51;;;;;;;9.88;2.65;;;23.60;71.90;;;;;;5073702;28;20044;-63
2022/06/26 04:11:17;;;;;;;10.30;2.28;;;23.60;71.50;;;;;;5073524;28;20391;-67
2022/06/26 04:13:42;;;;;;;10.30;2.63;;;23.60;71.60;;;;;;5073271;28;20029;-64
2022/06/26 04:16:08;;;;;;;8.98;2.58;;;23.60;71.70;;;;;;5073627;28;20048;-66
2022/06/26 04:18:34;;;;;;;11.70;3.00;;;23.60;71.50;;;;;;5073533;28;20103;-64
2022/06/26 04:21:00;;;;;;;8.70;2.28;;;23.60;71.50;;;;;;5073669;28;20399;-65
2022/06/26 04:23:26;;;;;;;10.73;2.42;;;23.60;71.30;;;;;;5073563;28;20033;-65
2022/06/26 04:25:52;;;;;;;10.07;2.30;;;23.60;71.30;;;;;;5073422;28;20048;-68
2022/06/26 04:28:17;;;;;;;7.20;2.20;;;23.60;71.30;;;;;;5073574;28;20042;-67
2022/06/26 04:30:43;;;;;;;12.45;2.50;;;23.60;71.20;;;;;;5073471;28;20033;-63
2022/06/26 04:33:09;;;;;;;8.68;2.47;;;23.60;71.20;;;;;;5073396;28;20044;-65
2022/06/26 04:35:35;;;;;;;10.55;2.67;;;23.60;70.70;;;;;;5073239;28;20029;-64
2022/06/26 04:38:01;;;;;;;12.05;2.67;;;23.60;70.80;;;;;;5073390;28;20056;-67
2022/06/26 04:40:27;;;;;;;8.27;2.15;;;23.60;71.00;;;;;;5071874;28;20098;-66
2022/06/26 04:42:53;;;;;;;11.70;2.85;;;23.70;71.40;;;;;;5073175;28;20035;-64
2022/06/26 04:45:19;;;;;;;9.20;2.35;;;23.70;71.00;;;;;;5073257;28;20086;-63
2022/06/26 04:47:45;;;;;;;11.48;2.45;;;23.80;70.70;;;;;;5072897;28;20491;-67
2022/06/26 04:50:11;;;;;;;8.45;2.17;;;23.80;70.90;;;;;;5072998;28;20032;-67
2022/06/26 04:52:36;;;;;;;10.18;2.50;;;23.80;71.00;;;;;;5072989;28;20028;-64
2022/06/26 04:55:03;;;;;;;13.15;2.58;;;23.80;70.70;;;;;;5072956;28;20395;-64
2022/06/26 04:57:28;;;;;;;5.30;2.40;;;23.80;70.80;;;;;;5072787;28;20041;-67
2022/06/26 04:59:54;;;;;;;8.20;2.95;;;23.80;71.10;;;;;;5072731;28;20040;-68
2022/06/26 05:02:20;;;;;;;8.48;2.22;;;23.80;71.10;;;;;;5071475;28;20035;-64
2022/06/26 05:04:45;;;;;;;7.65;2.55;;;23.90;71.00;;;;;;5072916;28;20043;-64
2022/06/26 05:07:11;;;;;;;6.93;2.25;;;23.90;70.80;;;;;;5072613;28;20043;-68
2022/06/26 05:09:37;;;;;;;6.72;2.13;;;23.90;70.70;;;;;;5072783;28;20542;-66
2022/06/26 05:12:03;;;;;;;5.93;2.30;;;23.90;70.60;;;;;;5072424;28;20029;-67
2022/06/26 05:14:28;;;;;;;7.93;2.20;;;23.90;70.10;;;;;;5072443;28;20035;-63
2022/06/26 05:16:54;;;;;;;9.13;2.63;;;23.90;69.80;;;;;;5072383;28;20475;-62
2022/06/26 05:19:20;;;;;;;9.23;1.92;;;24.00;69.60;;;;;;5073032;28;20032;-67
2022/06/26 05:21:45;;;;;;;7.95;2.90;;;24.00;69.80;;;;;;5072646;28;20395;-63
2022/06/26 05:24:11;;;;;;;7.03;2.20;;;24.00;70.20;;;;;;5072871;28;20072;-63
2022/06/26 05:26:39;;;;;;;9.43;2.47;;;24.10;70.30;;;;;;5072270;28;20094;-66
2022/06/26 05:29:04;;;;;;;7.38;2.45;;;24.10;70.40;;;;;;5072319;28;20102;-64
2022/06/26 05:31:30;;;;;;;11.25;2.28;;;24.10;70.20;;;;;;5072063;28;20691;-63
2022/06/26 05:33:56;;;;;;;12.40;2.33;;;24.10;70.10;;;;;;5072294;28;20048;-64
2022/06/26 05:36:21;;;;;;;11.40;3.05;;;24.20;70.40;;;;;;5072247;28;20025;-62
2022/06/26 05:38:47;;;;;;;18.30;2.55;;;24.20;70.90;;;;;;5072247;28;20037;-64
2022/06/26 05:41:13;;;;;;;6.80;2.40;;;24.20;71.20;;;;;;5072306;28;20044;-64
2022/06/26 05:43:38;;;;;;;6.57;2.40;;;24.20;71.20;;;;;;5072426;28;20045;-63
2022/06/26 05:46:04;;;;;;;8.38;2.92;;;24.20;71.20;;;;;;5072590;28;20522;-63
2022/06/26 05:48:30;;;;;;;9.38;2.10;;;24.30;71.60;;;;;;5072532;28;20048;-63
2022/06/26 05:50:56;;;;;;;12.75;2.42;;;24.30;71.40;;;;;;5072531;28;20033;-63
2022/06/26 05:53:22;;;;;;;8.02;2.55;;;24.30;71.20;;;;;;5072271;28;20124;-65
2022/06/26 05:55:48;;;;;;;9.88;2.63;;;24.30;71.20;;;;;;5072057;28;20111;-64
2022/06/26 05:58:14;;;;;;;7.80;2.03;;;24.30;71.30;;;;;;5072488;28;20115;-64
2022/06/26 06:00:39;;;;;;;7.60;2.45;;;24.40;71.40;;;;;;5072396;28;20033;-67
2022/06/26 06:03:06;;;;;;;7.03;2.25;;;24.40;71.10;;;;;;5072580;28;20039;-64
2022/06/26 06:05:33;;;;;;;6.28;2.33;;;24.40;70.70;;;;;;5072288;28;20037;-64
2022/06/26 06:07:59;;;;;;;9.07;2.17;;;24.50;70.70;;;;;;5072121;28;20029;-66
2022/06/26 06:10:26;;;;;;;9.35;2.70;;;24.60;70.40;;;;;;5071940;28;20036;-66
2022/06/26 06:12:52;;;;;;;5.95;2.17;;;24.50;69.70;;;;;;5072251;28;20032;-66
2022/06/26 06:15:21;;;;;;;7.38;2.40;;;24.60;69.90;;;;;;5071952;28;20037;-69
2022/06/26 06:17:47;;;;;;;20.52;2.50;;;24.60;70.30;;;;;;5071976;28;20044;-66
2022/06/26 06:20:19;;;;;;;12.13;2.25;;;24.60;70.30;;;;;;5072006;28;20032;-67
2022/06/26 06:23:00;;;;;;;9.57;2.50;;;24.70;70.30;;;;;;5072274;28;20040;-66
2022/06/26 06:25:25;;;;;;;10.93;2.92;;;24.70;70.10;;;;;;5072188;28;20079;-65
2022/06/26 06:27:52;;;;;;;7.75;2.30;;;24.80;69.70;;;;;;5071515;28;20052;-65
2022/06/26 06:30:18;;;;;;;8.70;2.65;;;24.80;69.30;;;;;;5071674;28;20040;-64
2022/06/26 06:32:45;;;;;;;7.43;2.50;;;24.80;69.30;;;;;;5071801;28;20123;-64
2022/06/26 06:35:13;;;;;;;10.10;2.33;;;24.90;69.50;;;;;;5071872;28;20114;-65
2022/06/26 06:37:43;;;;;;;7.75;2.17;;;24.90;70.20;;;;;;5070901;28;20390;-65
2022/06/26 06:40:10;;;;;;;7.35;2.40;;;25.00;69.30;;;;;;5071827;28;20036;-65
2022/06/26 06:42:36;;;;;;;11.82;2.65;;;25.00;69.00;;;;;;5071701;28;20485;-65
2022/06/26 06:45:02;;;;;;;9.30;2.20;;;25.10;68.80;;;;;;5074057;28;20021;-66
2022/06/26 06:47:28;;;;;;;10.20;2.42;;;25.10;68.70;;;;;;5075385;28;20111;-66
2022/06/26 06:49:54;;;;;;;10.65;2.75;;;25.20;68.70;;;;;;5075135;28;20075;-66
2022/06/26 06:52:20;;;;;;;8.98;1.92;;;25.20;68.80;;;;;;5075329;28;20056;-66
2022/06/26 06:54:46;;;;;;;6.43;2.20;;;25.20;68.50;;;;;;5075094;28;20043;-65
2022/06/26 06:57:11;;;;;;;7.53;2.35;;;25.30;68.40;;;;;;5075283;28;20029;-67
2022/06/26 06:59:37;;;;;;;8.10;2.20;;;25.30;68.50;;;;;;5075063;28;20119;-67
2022/06/26 07:02:03;;;;;;;11.63;2.10;;;25.40;68.90;;;;;;5075177;28;20079;-67
2022/06/26 07:04:29;;;;;;;5.95;2.10;;;25.40;68.30;;;;;;5075047;28;20036;-65
2022/06/26 07:06:55;;;;;;;9.13;2.10;;;25.50;67.90;;;;;;5074910;28;20037;-66
2022/06/26 07:09:21;;;;;;;12.27;2.42;;;25.60;67.50;;;;;;5075123;28;20076;-67
2022/06/26 07:11:47;;;;;;;12.80;2.30;;;25.60;67.40;;;;;;5075368;28;20064;-67
2022/06/26 07:14:13;;;;;;;7.13;2.00;;;25.60;66.90;;;;;;5075062;28;20119;-66
2022/06/26 07:16:38;;;;;;;12.13;2.45;;;25.70;66.50;;;;;;5075142;28;20071;-64
2022/06/26 07:19:04;;;;;;;7.43;2.60;;;25.70;66.40;;;;;;5074716;28;20036;-67
2022/06/26 07:21:30;;;;;;;13.82;2.42;;;25.80;66.50;;;;;;5074625;28;20052;-66
2022/06/26 07:23:56;;;;;;;9.25;2.05;;;25.80;66.60;;;;;;5073492;28;20506;-65
2022/06/26 07:26:21;;;;;;;10.27;2.15;;;25.90;66.60;;;;;;5074872;28;20099;-67
2022/06/26 07:28:47;;;;;;;9.85;2.47;;;25.90;66.40;;;;;;5074607;28;20414;-67
2022/06/26 07:31:13;;;;;;;6.53;1.90;;;25.90;66.20;;;;;;5074533;28;20546;-67
2022/06/26 07:36:23;;;;;;;9.27;2.15;;;26.10;66.00;;;;;;5074909;28;20109;-66
2022/06/26 07:38:49;;;;;;;6.15;1.73;;;26.10;65.80;;;;;;5074706;28;20071;-66
2022/06/26 07:41:15;;;;;;;8.88;2.10;;;26.10;65.80;;;;;;5074511;28;20040;-66
2022/06/26 07:43:41;;;;;;;10.25;2.03;;;26.20;65.00;;;;;;5074655;28;20064;-66
2022/06/26 07:46:06;;;;;;;7.28;2.00;;;26.20;64.50;;;;;;5074354;28;20106;-66
2022/06/26 07:48:33;;;;;;;10.07;2.75;;;26.30;63.70;;;;;;5074519;28;20076;-66
2022/06/26 07:50:59;;;;;;;8.35;1.85;;;26.30;63.30;;;;;;5074508;28;20036;-67
2022/06/26 07:53:25;;;;;;;10.95;3.30;;;26.40;63.30;;;;;;5074635;28;20383;-66
2022/06/26 07:55:50;;;;;;;7.78;2.05;;;26.40;63.30;;;;;;5072870;28;20039;-66
2022/06/26 07:58:16;;;;;;;8.13;2.28;;;26.50;63.30;;;;;;5074522;28;20043;-67
2022/06/26 08:00:42;;;;;;;11.27;2.28;;;26.50;63.30;;;;;;5074158;28;20037;-66
2022/06/26 08:03:11;;;;;;;7.65;2.22;;;26.60;63.00;;;;;;5074299;28;20115;-66
2022/06/26 08:05:37;;;;;;;11.43;2.58;;;26.70;62.40;;;;;;5074409;28;20036;-66
2022/06/26 08:08:04;;;;;;;8.50;2.13;;;26.70;62.10;;;;;;5074094;28;20082;-66
2022/06/26 08:10:31;;;;;;;6.40;1.90;;;26.80;62.20;;;;;;5074305;28;20111;-66
2022/06/26 08:12:57;;;;;;;10.75;2.15;;;26.80;62.60;;;;;;5074080;28;20497;-66
2022/06/26 08:15:23;;;;;;;6.43;2.15;;;26.90;62.10;;;;;;5074021;28;20075;-66
2022/06/26 08:17:49;;;;;;;8.75;2.42;;;27.00;62.60;;;;;;5073857;28;20592;-66
2022/06/26 08:20:15;;;;;;;9.70;2.20;;;27.00;62.80;;;;;;5073985;28;20033;-66
2022/06/26 08:22:41;;;;;;;9.38;2.10;;;27.10;61.80;;;;;;5074003;28;20020;-67
2022/06/26 08:25:07;;;;;;;7.20;1.73;;;27.20;61.40;;;;;;5073891;28;20062;-67
2022/06/26 08:27:33;;;;;;;10.93;2.28;;;27.20;61.10;;;;;;5074004;28;20029;-66
2022/06/26 08:29:58;;;;;;;7.63;2.25;;;27.30;61.10;;;;;;5073631;28;20060;-66
2022/06/26 08:32:24;;;;;;;6.38;2.13;;;27.30;61.20;;;;;;5073465;28;20051;-65
2022/06/26 08:34:51;;;;;;;9.55;2.80;;;27.40;61.20;;;;;;5073916;28;20068;-67
2022/06/26 08:37:17;;;;;;;9.27;2.10;;;27.50;61.70;;;;;;5073737;28;20131;-66
2022/06/26 08:39:43;;;;;;;11.07;2.65;;;27.50;61.80;;;;;;5073287;28;20040;-66
2022/06/26 08:42:10;;;;;;;11.55;2.20;;;27.60;61.70;;;;;;5073515;28;20482;-66
2022/06/26 08:44:43;;;;;;;7.35;1.98;;;27.70;61.80;;;;;;5073578;28;20033;-66
2022/06/26 08:47:10;;;;;;;11.35;2.67;;;27.70;60.60;;;;;;5073297;28;20086;-66
2022/06/26 08:49:36;;;;;;;10.73;2.40;;;27.80;60.60;;;;;;5073322;28;20075;-66
2022/06/26 08:52:02;;;;;;;7.18;2.40;;;27.80;60.60;;;;;;5073531;28;20071;-66
2022/06/26 08:54:29;;;;;;;13.32;2.47;;;27.90;61.00;;;;;;5073316;28;20028;-66
2022/06/26 08:56:56;;;;;;;10.25;2.15;;;28.00;61.00;;;;;;5073381;28;20029;-66
2022/06/26 08:59:21;;;;;;;10.02;2.17;;;28.00;60.50;;;;;;5073231;28;20037;-66
2022/06/26 09:01:47;;;;;;;9.18;2.30;;;28.10;60.60;;;;;;5072044;28;20074;-66
2022/06/26 09:04:14;;;;;;;13.52;2.47;;;28.20;60.30;;;;;;5073185;28;20037;-66
2022/06/26 09:06:41;;;;;;;7.40;1.88;;;28.20;59.90;;;;;;5072545;28;20033;-66
2022/06/26 09:09:18;;;;;;;16.17;2.30;;;28.30;59.80;;;;;;5073257;28;20044;-67
2022/06/26 09:11:45;;;;;;;13.23;2.38;;;28.30;59.40;;;;;;5073003;28;20399;-66
2022/06/26 09:14:13;;;;;;;7.72;2.13;;;28.30;60.10;;;;;;5073182;28;20387;-66
2022/06/26 09:16:42;;;;;;;11.23;2.45;;;28.40;60.10;;;;;;5072913;28;20044;-66
2022/06/26 09:19:13;;;;;;;9.07;2.55;;;28.50;60.70;;;;;;5072923;28;20024;-66
2022/06/26 09:21:39;;;;;;;19.17;3.07;;;28.50;60.60;;;;;;5073103;28;20044;-66
2022/06/26 09:24:26;;;;;;;9.88;2.33;;;28.60;60.70;;;;;;5073390;28;20064;-66
2022/06/26 09:27:15;;;;;;;13.55;2.83;;;28.70;60.60;;;;;;5073022;28;20043;-65
2022/06/26 09:29:47;;;;;;;21.60;3.25;;;28.80;61.00;;;;;;5072938;28;20080;-66
2022/06/26 09:32:14;;;;;;;15.93;2.65;;;28.90;60.40;;;;;;5072792;28;20028;-66
2022/06/26 09:34:50;;;;;;;10.02;2.42;;;28.90;59.80;;;;;;5072789;28;20036;-66
2022/06/26 09:37:18;;;;;;;10.35;2.50;;;29.00;60.00;;;;;;5072868;28;20103;-65
2022/06/26 09:39:44;;;;;;;14.77;2.80;;;29.00;59.50;;;;;;5073018;28;20029;-66
2022/06/26 09:42:18;;;;;;;18.20;3.38;;;29.10;59.50;;;;;;5072789;28;20035;-66
2022/06/26 09:44:55;;;;;;;21.15;3.90;;;;;;;;;;5072888;28;20490;-66
2022/06/26 09:47:32;;;;;;;11.57;2.60;;;29.30;59.30;;;;;;5072783;28;20103;-67
2022/06/26 09:50:07;;;;;;;9.10;2.17;;;29.30;59.00;;;;;;5072454;28;20466;-66
2022/06/26 09:52:33;;;;;;;10.68;2.58;;;29.40;59.70;;;;;;5072721;28;20037;-66
2022/06/26 09:55:01;;;;;;;12.65;2.70;;;29.50;58.50;;;;;;5072436;28;20044;-66
2022/06/26 09:57:28;;;;;;;13.57;2.63;;;29.50;59.00;;;;;;5072591;28;20064;-66
2022/06/26 09:59:55;;;;;;;11.15;2.60;;;29.60;59.00;;;;;;5072944;28;20041;-66
2022/06/26 10:07:59;;;;;;;12.15;2.50;;;29.70;59.00;;;;;;5072867;28;20086;-66
2022/06/26 10:10:25;;;;;;;9.00;2.63;;;29.80;58.00;;;;;;5072655;28;20056;-66
2022/06/26 10:13:02;;;;;;;13.15;2.60;;;29.80;58.60;;;;;;5072606;28;20071;-66
2022/06/26 10:15:49;;;;;;;9.80;2.50;;;;;;;;;;5072529;28;20032;-66
2022/06/26 10:18:33;;;;;;;12.55;3.58;;;;;;;;;;5062556;28;20436;-66
2022/06/26 10:21:06;;;;;;;10.65;2.50;;;;;;;;;;5076124;28;20036;-66
2022/06/26 10:23:36;;;;;;;14.05;2.80;;;;;;;;;;5076233;28;20036;-66
2022/06/26 10:26:16;;;;;;;16.63;3.10;;;;;;;;;;5076111;28;20067;-66
2022/06/26 10:28:55;;;;;;;9.20;2.40;;;;;;;;;;5075905;28;20120;-67
2022/06/26 10:31:21;;;;;;;12.93;2.78;;;;;;;;;;5076024;28;20037;-66
2022/06/26 10:33:48;;;;;;;23.45;3.22;;;;;;;;;;5075948;28;20048;-66
2022/06/26 10:36:20;;;;;;;11.88;2.92;;;;;;;;;;5076208;28;20491;-66
2022/06/26 10:38:46;;;;;;;16.10;3.35;;;;;;;;;;5076077;28;20029;-66
2022/06/26 10:44:02;;;;;;;15.60;3.03;;;;;;;;;;5076223;28;20112;-67
2022/06/26 10:46:45;;;;;;;8.73;2.28;;;;;;;;;;5075784;28;20036;-66
2022/06/26 10:49:11;;;;;;;11.27;2.58;;;;;;;;;;5075731;28;20445;-66
2022/06/26 10:51:41;;;;;;;10.05;2.45;;;;;;;;;;5075543;28;20039;-66
2022/06/26 10:54:21;;;;;;;11.65;2.17;;;;;;;;;;5075575;28;20033;-66
2022/06/26 10:56:53;;;;;;;9.13;2.58;;;;;;;;;;5075848;28;20400;-66
2022/06/26 10:59:19;;;;;;;;;;;;;;;;;;5073234;28;20045;-66
2022/06/26 11:01:45;;;;;;;13.80;2.50;;;;;;;;;;5072592;28;19915;-67
2022/06/26 11:04:11;;;;;;;10.48;2.60;;;;;;;;;;5074606;28;20120;-66
2022/06/26 11:06:42;;;;;;;12.55;2.95;;;;;;;;;;5075486;28;20078;-66
2022/06/26 11:09:09;;;;;;;10.85;2.67;;;;;;;;;;5075350;28;20372;-66
2022/06/26 11:11:35;;;;;;;21.00;2.80;;;;;;;;;;5075422;28;20039;-66
2022/06/26 11:14:05;;;;;;;9.82;2.50;;;;;;;;;;5075583;28;20039;-67
2022/06/26 11:16:41;;;;;;;26.65;2.40;;;;;;;;;;5075235;28;20037;-66
2022/06/26 11:19:09;;;;;;;12.55;2.58;;;;;;;;;;5075264;28;20040;-66
2022/06/26 11:21:35;;;;;;;10.70;2.53;;;;;;;;;;5075160;28;20035;-66
2022/06/26 11:24:01;;;;;;;14.65;2.95;;;;;;;;;;5072382;28;20090;-66
2022/06/26 11:26:28;;;;;;;11.77;2.72;;;;;;;;;;5072165;28;20024;-64
2022/06/26 11:28:55;;;;;;;14.25;2.40;;;;;;;;;;5072207;28;20079;-66
2022/06/26 11:31:22;;;;;;;17.52;3.00;;;;;;;;;;5073908;28;20513;-66
2022/06/26 11:33:48;;;;;;;13.63;2.53;;;;;;;;;;5074571;28;20052;-66
2022/06/26 11:36:15;;;;;;;13.57;2.20;;;;;;;;;;5074748;28;20033;-66
2022/06/26 11:38:54;;;;;;;14.00;2.72;;;;;;;;;;5074393;28;20029;-66
2022/06/26 11:41:24;;;;;;;11.65;2.20;;;;;;;;;;5074625;28;20083;-66
2022/06/26 11:43:52;;;;;;;15.18;2.80;;;;;;;;;;5074499;28;20041;-67
2022/06/26 11:46:19;;;;;;;12.48;2.42;;;;;;;;;;5074325;28;20347;-67
2022/06/26 11:48:46;;;;;;;11.20;2.50;;;;;;;;;;5074624;28;20490;-67
2022/06/26 11:51:16;;;;;;;12.43;2.47;;;;;;;;;;5074576;28;20424;-67
2022/06/26 11:53:45;;;;;;;10.57;2.50;;;;;;;;;;5074256;28;20111;-66
2022/06/26 11:56:17;;;;;;;13.50;2.42;;;;;;;;;;5074162;28;20390;-67
2022/06/26 11:58:46;;;;;;;10.13;2.35;;;;;;;;;;5073927;28;20024;-66
2022/06/26 12:01:13;;;;;;;13.65;2.58;;;;;;;;;;5073971;28;20402;-67
2022/06/26 12:03:48;;;;;;;10.93;2.35;;;;;;;;;;5074206;28;20029;-66
2022/06/26 12:06:35;;;;;;;11.68;2.35;;;;;;;;;;5074200;28;20115;-66
2022/06/26 12:09:02;;;;;;;13.02;2.15;;;;;;;;;;5074546;28;20503;-66
2022/06/26 12:11:28;;;;;;;10.63;2.30;;;;;;;;;;5074074;28;20029;-66
2022/06/26 12:13:55;;;;;;;10.13;2.30;;;;;;;;;;5074307;28;20100;-66
2022/06/26 12:16:21;;;;;;;12.55;2.55;;;;;;;;;;5074161;28;20119;-66
2022/06/26 12:18:49;;;;;;;12.02;2.30;;;;;;;;;;5073970;28;20550;-66
2022/06/26 12:21:21;;;;;;;8.77;2.15;;;;;;;;;;5073753;28;20060;-66
2022/06/26 12:23:48;;;;;;;11.48;2.22;;;;;;;;;;5074092;28;20107;-66
2022/06/26 12:26:18;;;;;;;10.50;2.38;;;;;;;;;;5074056;28;20067;-66
2022/06/26 12:29:00;;;;;;;14.68;2.33;;;;;;;;;;5073910;28;20036;-66
2022/06/26 12:31:26;;;;;;;10.25;2.55;;;;;;;;;;5073741;28;20036;-66
2022/06/26 12:33:53;;;;;;;12.25;2.60;;;;;;;;;;5073387;28;20063;-66
2022/06/26 12:36:19;;;;;;;10.70;2.20;;;;;;;;;;5073460;28;20036;-66
2022/06/26 12:38:46;;;;;;;11.30;1.92;;;;;;;;;;5073718;28;20047;-66
2022/06/26 12:41:18;;;;;;;14.82;2.95;;;;;;;;;;5071729;28;20029;-66
2022/06/26 12:43:45;;;;;;;11.73;2.85;;;;;;;;;;5073552;28;20498;-67
2022/06/26 12:46:11;;;;;;;13.43;2.58;;;;;;;;;;5073276;28;20461;-66
2022/06/26 12:48:37;;;;;;;10.05;2.13;;;;;;;;;;5073159;28;20041;-67
2022/06/26 12:51:03;;;;;;;11.80;2.40;;;;;;;;;;5073361;28;20523;-66
2022/06/26 12:53:29;;;;;;;11.35;2.15;;;;;;;;;;5073296;28;20376;-67
2022/06/26 12:55:57;;;;;;;11.40;2.72;;;;;;;;;;5073515;28;20033;-66
2022/06/26 12:58:23;;;;;;;11.07;2.50;;;;;;;;;;5073250;28;20116;-67
2022/06/26 13:00:49;;;;;;;13.55;2.67;;;;;;;;;;5071893;28;20036;-66
2022/06/26 13:03:15;;;;;;;8.07;2.15;;;;;;;;;;5071800;28;20474;-66
2022/06/26 13:05:41;;;;;;;5.85;2.00;;;;;;;;;;5073307;28;20490;-67
2022/06/26 13:08:08;;;;;;;15.75;2.20;;;;;;;;;;5073312;28;20478;-67
2022/06/26 13:10:34;;;;;;;10.05;2.22;;;;;;;;;;5073020;28;20028;-66
2022/06/26 13:13:00;;;;;;;9.82;2.78;;;;;;;;;;5073197;28;20029;-67
2022/06/26 13:15:26;;;;;;;6.03;1.95;;;;;;;;;;5073073;28;20036;-67
2022/06/26 13:17:53;;;;;;;16.50;2.35;;;;;;;;;;5072893;28;20036;-66
2022/06/26 13:20:19;;;;;;;14.20;2.80;;;;;;;;;;5072893;28;20036;-66